Nearby METAR Reports

 

KSJC - San Jose, California, USA
Distance from station: NE 9mi, 14km
Updated: Fri, 30-Oct-2020 4:53pm CDT
Mostly cloudy
Mostly cloudy
 Wind from NW
Wind: NW 10 mph , 17 km/h
Temperature: 72°F , 22°C
Dew Point: 48°F , 9°C
Humidity: 44%
Barometer: 30.02 inHg , 1016.6 hPa
Clouds: Mostly cloudy
Visibility: 9 miles , 14 km
Cloud details: Few Clouds 100 ft
Partly cloudy 3200 ft
Mostly cloudy 5000 ft
2020/10/30 21:53 KSJC 302153Z 32009KT 9SM FEW001 SCT032 BKN050 22/09 A3002 RMK AO2 SLP164 HZ FEW001 HZ SCT032 HZ BKN050 T02220089
KNUQ - Moffett Nas/Mtn, California, USA
Distance from station: N 9mi, 14km
Updated: Fri, 30-Oct-2020 8:55am CDT
NOT Current

 Wind from calm
Wind: Calm
Temperature: 50°F , 10°C
Dew Point: 43°F , 6°C
Humidity: 76%
Barometer: 30.07 inHg , 1018.3 hPa
Visibility: 10 miles , 16 km
2020/10/30 13:55 KNUQ 301355Z AUTO 00000KT 10SM 10/06 A3007 RMK AO2
 
KPAO - Palo Alto, California, USA
Distance from station: NNW 14mi, 23km
Updated: Fri, 30-Oct-2020 4:47pm CDT
Clear
Clear
 Wind from NW
Wind: NW 9 mph , 15 km/h
Temperature: 68°F , 20°C
Dew Point: 52°F , 11°C
Humidity: 56%
Barometer: 30.03 inHg , 1016.9 hPa
Clouds: Clear
Visibility: 10 miles , 16 km
2020/10/30 21:47 KPAO 302147Z 32008KT 10SM SKC 20/11 A3003
KRHV - San Jose/Reid, California, USA
Distance from station: ENE 12mi, 19km
Updated: Fri, 30-Oct-2020 4:47pm CDT
Clear
Clear
 Wind from WNW
Wind: WNW 9 mph , 15 km/h
Temperature: 73°F , 23°C
Dew Point: 46°F , 8°C
Humidity: 38%
Barometer: 30.02 inHg , 1016.6 hPa
Clouds: Clear
Visibility: 10 miles , 16 km
2020/10/30 21:47 KRHV 302147Z 30008KT 10SM SKC 23/08 A3002
 
KOAK - Oakland, California, USA
Distance from station: NNW 31mi, 50km
Updated: Fri, 30-Oct-2020 4:53pm CDT
Few Clouds
Few Clouds
 Wind from WNW
Wind: WNW 12 mph , 19 km/h
Temperature: 70°F , 21°C
Dew Point: 50°F , 10°C
Humidity: 50%
Barometer: 30.03 inHg , 1016.9 hPa
Clouds: Few Clouds
Visibility: 10 miles , 16 km
Cloud details: Few Clouds 1200 ft
2020/10/30 21:53 KOAK 302153Z 29010KT 10SM FEW012 21/10 A3003 RMK AO2 SLP170 T02060100
KSQL - San Carlos Airpo, California, USA
Distance from station: NW 21mi, 34km
Updated: Fri, 30-Oct-2020 4:47pm CDT
Clear
Clear
 Wind from WNW
Wind: WNW 8 mph , 13 km/h
Temperature: 66°F , 19°C
Dew Point: 48°F , 9°C
Humidity: 52%
Barometer: 30.04 inHg , 1017.3 hPa
Clouds: Clear
Visibility: 10 miles , 16 km
2020/10/30 21:47 KSQL 302147Z 30007KT 10SM SKC 19/09 A3004
 
KSFO - San Francisco, California, USA
Distance from station: NW 30mi, 49km
Updated: Fri, 30-Oct-2020 4:56pm CDT
Few Clouds
Few Clouds
 Wind from WNW
Wind: WNW 15 mph , 24 km/h
Temperature: 63°F , 17°C
Dew Point: 48°F , 9°C
Humidity: 59%
Barometer: 30.03 inHg , 1016.9 hPa
Clouds: Few Clouds
Visibility: 10 miles , 16 km
Cloud details: Few Clouds 20000 ft
2020/10/30 21:56 KSFO 302156Z 30013KT 10SM FEW200 17/09 A3003 RMK AO2 SLP168 T01670094
KE16 - San Martin, California, USA
Distance from station: ESE 27mi, 43km
Updated: Fri, 30-Oct-2020 5:15pm CDT
Clear
Clear
 Wind from NW
Wind: NW 14 mph , 22 km/h, Gust: 18 mph , 30 km/h
Temperature: 79°F , 26°C
Dew Point: 37°F , 3°C
Humidity: 23%
Barometer: 30.00 inHg , 1015.9 hPa
Clouds: Clear
Visibility: 10 miles , 16 km
2020/10/30 22:15 KE16 302215Z AUTO 32012G16KT 10SM CLR 26/03 A3000 RMK AO2 PWINO PNO
 
KWVI - Watsonville, California, USA
Distance from station: SSE 27mi, 44km
Updated: Fri, 30-Oct-2020 4:53pm CDT
Clear
Clear
 Wind from SSW
Wind: SSW 8 mph , 13 km/h
Temperature: 68°F , 20°C
Dew Point: 50°F , 10°C
Humidity: 53%
Barometer: 30.01 inHg , 1016.3 hPa
Clouds: Clear
Visibility: 10 miles , 16 km
2020/10/30 21:53 KWVI 302153Z AUTO 21007KT 10SM CLR 20/10 A3001 RMK AO2 SLP163 T02000100
KHAF - Half Moon Bay, California, USA
Distance from station: WNW 31mi, 50km
Updated: Fri, 30-Oct-2020 5:15pm CDT
Clear
Clear
 Wind from NNW
Wind: NNW 12 mph , 19 km/h, Gust: 17 mph , 28 km/h
Temperature: 57°F , 14°C
Dew Point: 50°F , 10°C
Humidity: 77%
Barometer: 30.04 inHg , 1017.3 hPa
Clouds: Clear
Visibility: 8 miles , 13 km
2020/10/30 22:15 KHAF 302215Z AUTO 34010G15KT 8SM CLR 14/10 A3004 RMK AO2
 
KHWD - Hayward, California, USA
Distance from station: N 28mi, 44km
Updated: Fri, 30-Oct-2020 4:54pm CDT
Clear
Clear
 Wind from W
Wind: W 13 mph , 20 km/h
Temperature: 70°F , 21°C
Dew Point: 50°F , 10°C
Humidity: 50%
Barometer: 30.02 inHg , 1016.6 hPa
Clouds: Clear
Visibility: 9 miles , 14 km
2020/10/30 21:54 KHWD 302154Z 28011KT 9SM CLR 21/10 A3002 RMK AO2 SLP176 T02060100
KLVK - Livermore, California, USA
Distance from station: NNE 31mi, 51km
Updated: Fri, 30-Oct-2020 4:53pm CDT
Smoke, Clear
Smoke, Clear
 Wind from S
Wind: S 7 mph , 11 km/h
Temperature: 79°F , 26°C
Dew Point: 30°F , -1°C
Humidity: 17%
Barometer: 30.00 inHg , 1015.9 hPa
Summary: Smoke
Clouds: Clear
Visibility: 9 miles , 14 km
2020/10/30 21:53 KLVK 302153Z 19006KT 9SM FU CLR 26/M01 A3000 RMK AO2 SLP157 T02611006